KCNK/CNK METAR and TAF weather

Enter ICAO airport designator
Station Type Date Time Source
KCNK METAR 2022/11/30 08:55 UTC NOAA

KCNK 300855Z AUTO 28008KT 10SM CLR M08/M13 A3024 RMK AO2 SLP260 T10831128 51019


Station Type Date Time Source
KCNK Decoded METAR 2022/11/30 08:55 UTC NOAA

Concordia, Blosser Municipal Airport, KS, United States (KCNK) 39-33-05N 097-39-02W 447M
Nov 30, 2022 - 03:55 AM EST / 2022.11.30 0855 UTC
Wind: from the W (280 degrees) at 9 MPH (8 KT):0
Visibility: 10 mile(s):0
Sky conditions: clear
Temperature: 17.1 F (-8.3 C)
Windchill: 6 F (-14 C):1
Dew Point: 9.0 F (-12.8 C)
Relative Humidity: 69%
Pressure (altimeter): 30.24 in. Hg (1024 hPa)
Pressure tendency: 0.06 inches (1.9 hPa) higher than three hours ago
ob: KCNK 300855Z AUTO 28008KT 10SM CLR M08/M13 A3024 RMK AO2 SLP260 T10831128 51019
cycle: 9

Station Type Date Time Source
KCNK TAF UTC NOAA

Error!

Example: see airport list